sensor_id;sensor_type;location;lat;lon;timestamp;temperature;humidity
1994;DHT22;998;49.906;10.908;2023-02-26T00:00:01;1.10;99.90
1994;DHT22;998;49.906;10.908;2023-02-26T00:02:33;1.20;99.90
1994;DHT22;998;49.906;10.908;2023-02-26T00:05:01;1.10;99.90
1994;DHT22;998;49.906;10.908;2023-02-26T00:07:29;1.20;99.90
1994;DHT22;998;49.906;10.908;2023-02-26T00:09:56;1.10;99.90
1994;DHT22;998;49.906;10.908;2023-02-26T00:12:24;1.20;99.90
1994;DHT22;998;49.906;10.908;2023-02-26T00:14:54;1.00;99.90
1994;DHT22;998;49.906;10.908;2023-02-26T00:17:43;1.00;99.90
1994;DHT22;998;49.906;10.908;2023-02-26T00:20:12;0.90;99.90
1994;DHT22;998;49.906;10.908;2023-02-26T00:22:42;0.80;99.90
1994;DHT22;998;49.906;10.908;2023-02-26T00:25:10;0.90;99.90
1994;DHT22;998;49.906;10.908;2023-02-26T00:27:38;0.80;99.90
1994;DHT22;998;49.906;10.908;2023-02-26T00:30:08;0.90;99.90
1994;DHT22;998;49.906;10.908;2023-02-26T00:32:36;1.00;99.90
1994;DHT22;998;49.906;10.908;2023-02-26T00:35:05;0.90;99.90
1994;DHT22;998;49.906;10.908;2023-02-26T00:37:45;0.90;99.90
1994;DHT22;998;49.906;10.908;2023-02-26T00:40:20;0.90;99.90
1994;DHT22;998;49.906;10.908;2023-02-26T00:42:49;0.90;99.90
1994;DHT22;998;49.906;10.908;2023-02-26T00:45:19;0.70;99.90
1994;DHT22;998;49.906;10.908;2023-02-26T00:47:50;0.70;99.90
1994;DHT22;998;49.906;10.908;2023-02-26T00:50:19;0.70;99.90
1994;DHT22;998;49.906;10.908;2023-02-26T00:52:55;0.50;99.90
1994;DHT22;998;49.906;10.908;2023-02-26T00:55:25;0.50;99.90
1994;DHT22;998;49.906;10.908;2023-02-26T00:57:52;0.40;99.90
1994;DHT22;998;49.906;10.908;2023-02-26T01:00:21;0.40;99.90
1994;DHT22;998;49.906;10.908;2023-02-26T01:02:49;0.40;99.90
1994;DHT22;998;49.906;10.908;2023-02-26T01:05:17;0.40;99.90
1994;DHT22;998;49.906;10.908;2023-02-26T01:07:53;0.40;99.90
1994;DHT22;998;49.906;10.908;2023-02-26T01:10:24;0.40;99.90
1994;DHT22;998;49.906;10.908;2023-02-26T01:12:52;0.30;99.90
1994;DHT22;998;49.906;10.908;2023-02-26T01:15:23;0.20;99.90
1994;DHT22;998;49.906;10.908;2023-02-26T01:17:54;0.30;99.90
1994;DHT22;998;49.906;10.908;2023-02-26T01:20:23;0.30;99.90
1994;DHT22;998;49.906;10.908;2023-02-26T01:22:53;0.30;99.90
1994;DHT22;998;49.906;10.908;2023-02-26T01:25:24;0.20;99.90
1994;DHT22;998;49.906;10.908;2023-02-26T01:27:53;0.20;99.90
1994;DHT22;998;49.906;10.908;2023-02-26T01:30:25;0.10;99.90
1994;DHT22;998;49.906;10.908;2023-02-26T01:32:57;0.20;99.90
1994;DHT22;998;49.906;10.908;2023-02-26T01:35:38;0.40;99.90
1994;DHT22;998;49.906;10.908;2023-02-26T01:38:15;0.30;99.90
1994;DHT22;998;49.906;10.908;2023-02-26T01:44:05;0.30;99.90
1994;DHT22;998;49.906;10.908;2023-02-26T01:46:43;0.40;99.90
1994;DHT22;998;49.906;10.908;2023-02-26T01:49:14;0.30;99.90
1994;DHT22;998;49.906;10.908;2023-02-26T01:51:49;0.50;99.90
1994;DHT22;998;49.906;10.908;2023-02-26T01:54:19;0.60;99.90
1994;DHT22;998;49.906;10.908;2023-02-26T01:56:49;0.60;99.90
1994;DHT22;998;49.906;10.908;2023-02-26T01:59:19;0.50;99.90
1994;DHT22;998;49.906;10.908;2023-02-26T02:01:51;0.50;99.90
1994;DHT22;998;49.906;10.908;2023-02-26T02:04:20;0.50;99.90
1994;DHT22;998;49.906;10.908;2023-02-26T02:06:49;0.60;99.90
1994;DHT22;998;49.906;10.908;2023-02-26T02:09:16;0.60;99.90
1994;DHT22;998;49.906;10.908;2023-02-26T02:12:07;0.60;99.90
1994;DHT22;998;49.906;10.908;2023-02-26T02:14:44;0.70;99.90
1994;DHT22;998;49.906;10.908;2023-02-26T02:17:18;0.80;99.90
1994;DHT22;998;49.906;10.908;2023-02-26T02:20:05;0.80;99.90
1994;DHT22;998;49.906;10.908;2023-02-26T02:22:55;0.90;99.90
1994;DHT22;998;49.906;10.908;2023-02-26T02:28:39;0.80;99.90
1994;DHT22;998;49.906;10.908;2023-02-26T02:31:11;0.90;99.90
1994;DHT22;998;49.906;10.908;2023-02-26T02:33:48;0.90;99.90
1994;DHT22;998;49.906;10.908;2023-02-26T02:36:21;0.90;99.90
1994;DHT22;998;49.906;10.908;2023-02-26T02:38:53;0.90;99.90
1994;DHT22;998;49.906;10.908;2023-02-26T02:41:25;0.90;99.90
1994;DHT22;998;49.906;10.908;2023-02-26T02:43:54;1.00;99.90
1994;DHT22;998;49.906;10.908;2023-02-26T02:46:27;1.00;99.90
1994;DHT22;998;49.906;10.908;2023-02-26T02:48:59;0.80;99.90
1994;DHT22;998;49.906;10.908;2023-02-26T02:51:31;0.90;99.90
1994;DHT22;998;49.906;10.908;2023-02-26T02:54:03;0.90;99.90
1994;DHT22;998;49.906;10.908;2023-02-26T02:56:34;0.90;99.90
1994;DHT22;998;49.906;10.908;2023-02-26T02:59:11;0.90;99.90
1994;DHT22;998;49.906;10.908;2023-02-26T03:01:43;0.90;99.90
1994;DHT22;998;49.906;10.908;2023-02-26T03:04:13;0.90;99.90
1994;DHT22;998;49.906;10.908;2023-02-26T03:06:41;0.90;99.90
1994;DHT22;998;49.906;10.908;2023-02-26T03:09:11;0.90;99.90
1994;DHT22;998;49.906;10.908;2023-02-26T03:11:38;0.80;99.90
1994;DHT22;998;49.906;10.908;2023-02-26T03:14:06;0.80;99.90
1994;DHT22;998;49.906;10.908;2023-02-26T03:19:43;0.60;99.90
1994;DHT22;998;49.906;10.908;2023-02-26T03:22:17;0.60;99.90
1994;DHT22;998;49.906;10.908;2023-02-26T03:24:49;0.40;99.90
1994;DHT22;998;49.906;10.908;2023-02-26T03:27:23;0.40;99.90
1994;DHT22;998;49.906;10.908;2023-02-26T03:29:55;0.50;99.90
1994;DHT22;998;49.906;10.908;2023-02-26T03:32:26;0.50;99.90
1994;DHT22;998;49.906;10.908;2023-02-26T03:35:00;0.60;99.90
1994;DHT22;998;49.906;10.908;2023-02-26T03:37:33;0.60;99.90
1994;DHT22;998;49.906;10.908;2023-02-26T03:40:05;0.40;99.90
1994;DHT22;998;49.906;10.908;2023-02-26T03:42:37;0.40;99.90
1994;DHT22;998;49.906;10.908;2023-02-26T03:45:09;0.40;99.90
1994;DHT22;998;49.906;10.908;2023-02-26T03:47:39;0.40;99.90
1994;DHT22;998;49.906;10.908;2023-02-26T03:50:13;0.40;99.90
1994;DHT22;998;49.906;10.908;2023-02-26T03:52:43;0.40;99.90
1994;DHT22;998;49.906;10.908;2023-02-26T03:55:14;0.30;99.90
1994;DHT22;998;49.906;10.908;2023-02-26T03:57:43;0.30;99.90
1994;DHT22;998;49.906;10.908;2023-02-26T04:00:12;0.30;99.90
1994;DHT22;998;49.906;10.908;2023-02-26T04:02:54;0.20;99.90
1994;DHT22;998;49.906;10.908;2023-02-26T04:05:26;0.20;99.90
1994;DHT22;998;49.906;10.908;2023-02-26T04:07:56;0.10;99.90
1994;DHT22;998;49.906;10.908;2023-02-26T04:10:28;0.10;99.90
1994;DHT22;998;49.906;10.908;2023-02-26T04:12:59;0.10;99.90
1994;DHT22;998;49.906;10.908;2023-02-26T04:15:26;0.20;99.90
1994;DHT22;998;49.906;10.908;2023-02-26T04:17:54;0.10;99.90
1994;DHT22;998;49.906;10.908;2023-02-26T04:20:22;0.10;99.90
1994;DHT22;998;49.906;10.908;2023-02-26T04:22:50;0.20;99.90
1994;DHT22;998;49.906;10.908;2023-02-26T04:25:17;0.10;99.90
1994;DHT22;998;49.906;10.908;2023-02-26T04:27:45;0.10;99.90
1994;DHT22;998;49.906;10.908;2023-02-26T04:30:12;0.00;99.90
1994;DHT22;998;49.906;10.908;2023-02-26T04:32:39;0.10;99.90
1994;DHT22;998;49.906;10.908;2023-02-26T04:35:07;0.20;99.90
1994;DHT22;998;49.906;10.908;2023-02-26T04:37:36;0.20;99.90
1994;DHT22;998;49.906;10.908;2023-02-26T04:40:05;0.20;99.90
1994;DHT22;998;49.906;10.908;2023-02-26T04:42:33;0.30;99.90
1994;DHT22;998;49.906;10.908;2023-02-26T04:45:00;0.20;99.90
1994;DHT22;998;49.906;10.908;2023-02-26T04:47:28;0.30;99.90
1994;DHT22;998;49.906;10.908;2023-02-26T04:49:55;0.30;99.90
1994;DHT22;998;49.906;10.908;2023-02-26T04:52:23;0.30;99.90
1994;DHT22;998;49.906;10.908;2023-02-26T04:54:51;0.40;99.90
1994;DHT22;998;49.906;10.908;2023-02-26T04:57:19;0.30;99.90
1994;DHT22;998;49.906;10.908;2023-02-26T04:59:46;0.30;99.90
1994;DHT22;998;49.906;10.908;2023-02-26T05:02:14;0.30;99.90
1994;DHT22;998;49.906;10.908;2023-02-26T05:04:41;0.30;99.90
1994;DHT22;998;49.906;10.908;2023-02-26T05:07:09;0.30;99.90
1994;DHT22;998;49.906;10.908;2023-02-26T05:09:37;0.30;99.90
1994;DHT22;998;49.906;10.908;2023-02-26T05:12:06;0.30;99.90
1994;DHT22;998;49.906;10.908;2023-02-26T05:14:33;0.30;99.90
1994;DHT22;998;49.906;10.908;2023-02-26T05:17:00;0.30;99.90
1994;DHT22;998;49.906;10.908;2023-02-26T05:19:28;0.40;99.90
1994;DHT22;998;49.906;10.908;2023-02-26T05:21:55;0.40;99.90
1994;DHT22;998;49.906;10.908;2023-02-26T05:24:23;0.40;99.90
1994;DHT22;998;49.906;10.908;2023-02-26T05:26:50;0.30;99.90
1994;DHT22;998;49.906;10.908;2023-02-26T05:29:19;0.10;99.90
1994;DHT22;998;49.906;10.908;2023-02-26T05:31:46;0.20;99.90
1994;DHT22;998;49.906;10.908;2023-02-26T05:34:14;0.20;99.90
1994;DHT22;998;49.906;10.908;2023-02-26T05:36:41;0.20;99.90
1994;DHT22;998;49.906;10.908;2023-02-26T05:39:08;0.20;99.90
1994;DHT22;998;49.906;10.908;2023-02-26T05:41:36;0.20;99.90
1994;DHT22;998;49.906;10.908;2023-02-26T05:44:03;0.20;99.90
1994;DHT22;998;49.906;10.908;2023-02-26T05:46:34;0.20;99.90
1994;DHT22;998;49.906;10.908;2023-02-26T05:49:01;0.10;99.90
1994;DHT22;998;49.906;10.908;2023-02-26T05:51:28;0.20;99.90
1994;DHT22;998;49.906;10.908;2023-02-26T05:53:56;0.20;99.90
1994;DHT22;998;49.906;10.908;2023-02-26T05:56:23;0.20;99.90
1994;DHT22;998;49.906;10.908;2023-02-26T05:58:51;0.30;99.90
1994;DHT22;998;49.906;10.908;2023-02-26T06:01:18;0.20;99.90
1994;DHT22;998;49.906;10.908;2023-02-26T06:03:47;0.20;99.90
1994;DHT22;998;49.906;10.908;2023-02-26T06:06:14;0.30;99.90
1994;DHT22;998;49.906;10.908;2023-02-26T06:08:43;0.30;99.90
1994;DHT22;998;49.906;10.908;2023-02-26T06:11:11;0.30;99.90
1994;DHT22;998;49.906;10.908;2023-02-26T06:13:39;0.40;99.90
1994;DHT22;998;49.906;10.908;2023-02-26T06:16:06;0.40;99.90
1994;DHT22;998;49.906;10.908;2023-02-26T06:18:34;0.40;99.90
1994;DHT22;998;49.906;10.908;2023-02-26T06:21:03;0.40;99.90
1994;DHT22;998;49.906;10.908;2023-02-26T06:23:30;0.30;99.90
1994;DHT22;998;49.906;10.908;2023-02-26T06:25:58;0.30;99.90
1994;DHT22;998;49.906;10.908;2023-02-26T06:28:25;0.30;99.90
1994;DHT22;998;49.906;10.908;2023-02-26T06:30:53;0.30;99.90
1994;DHT22;998;49.906;10.908;2023-02-26T06:33:20;0.20;99.90
1994;DHT22;998;49.906;10.908;2023-02-26T06:35:48;0.20;99.90
1994;DHT22;998;49.906;10.908;2023-02-26T06:38:18;0.30;99.90
1994;DHT22;998;49.906;10.908;2023-02-26T06:40:46;0.30;99.90
1994;DHT22;998;49.906;10.908;2023-02-26T06:43:14;0.30;99.90
1994;DHT22;998;49.906;10.908;2023-02-26T06:45:41;0.30;99.90
1994;DHT22;998;49.906;10.908;2023-02-26T06:48:09;0.20;99.90
1994;DHT22;998;49.906;10.908;2023-02-26T06:50:36;0.20;99.90
1994;DHT22;998;49.906;10.908;2023-02-26T06:53:04;0.20;99.90
1994;DHT22;998;49.906;10.908;2023-02-26T06:55:33;0.30;99.90
1994;DHT22;998;49.906;10.908;2023-02-26T06:58:00;0.40;99.90
1994;DHT22;998;49.906;10.908;2023-02-26T07:00:28;0.30;99.90
1994;DHT22;998;49.906;10.908;2023-02-26T07:02:55;0.30;99.90
1994;DHT22;998;49.906;10.908;2023-02-26T07:05:22;0.20;99.90
1994;DHT22;998;49.906;10.908;2023-02-26T07:07:49;0.20;99.90
1994;DHT22;998;49.906;10.908;2023-02-26T07:10:17;0.10;99.90
1994;DHT22;998;49.906;10.908;2023-02-26T07:12:47;0.00;99.90
1994;DHT22;998;49.906;10.908;2023-02-26T07:15:15;0.10;99.90
1994;DHT22;998;49.906;10.908;2023-02-26T07:17:42;0.10;99.90
1994;DHT22;998;49.906;10.908;2023-02-26T07:20:10;0.20;99.90
1994;DHT22;998;49.906;10.908;2023-02-26T07:22:38;0.30;99.90
1994;DHT22;998;49.906;10.908;2023-02-26T07:25:06;0.30;99.90
1994;DHT22;998;49.906;10.908;2023-02-26T07:27:34;0.30;99.90
1994;DHT22;998;49.906;10.908;2023-02-26T07:30:04;0.30;99.90
1994;DHT22;998;49.906;10.908;2023-02-26T07:32:32;0.40;99.90
1994;DHT22;998;49.906;10.908;2023-02-26T07:34:59;0.30;99.90
1994;DHT22;998;49.906;10.908;2023-02-26T07:37:27;0.30;99.90
1994;DHT22;998;49.906;10.908;2023-02-26T07:39:54;0.40;99.90
1994;DHT22;998;49.906;10.908;2023-02-26T07:42:22;0.40;99.90
1994;DHT22;998;49.906;10.908;2023-02-26T07:44:49;0.40;99.90
1994;DHT22;998;49.906;10.908;2023-02-26T07:47:18;0.50;99.90
1994;DHT22;998;49.906;10.908;2023-02-26T07:49:46;0.40;99.90
1994;DHT22;998;49.906;10.908;2023-02-26T07:52:13;0.50;99.90
1994;DHT22;998;49.906;10.908;2023-02-26T07:54:42;0.50;99.90
1994;DHT22;998;49.906;10.908;2023-02-26T07:57:09;0.60;99.90
1994;DHT22;998;49.906;10.908;2023-02-26T07:59:37;0.50;99.90
1994;DHT22;998;49.906;10.908;2023-02-26T08:02:05;0.60;99.90
1994;DHT22;998;49.906;10.908;2023-02-26T08:04:34;0.70;99.90
1994;DHT22;998;49.906;10.908;2023-02-26T08:07:01;0.70;99.90
1994;DHT22;998;49.906;10.908;2023-02-26T08:09:29;0.70;99.90
1994;DHT22;998;49.906;10.908;2023-02-26T08:11:56;0.70;99.90
1994;DHT22;998;49.906;10.908;2023-02-26T08:14:24;0.70;99.90
1994;DHT22;998;49.906;10.908;2023-02-26T08:16:51;0.80;99.90
1994;DHT22;998;49.906;10.908;2023-02-26T08:19:19;0.80;99.90
1994;DHT22;998;49.906;10.908;2023-02-26T08:21:47;0.80;99.90
1994;DHT22;998;49.906;10.908;2023-02-26T08:24:15;0.80;99.90
1994;DHT22;998;49.906;10.908;2023-02-26T08:26:42;0.90;99.90
1994;DHT22;998;49.906;10.908;2023-02-26T08:29:10;1.00;99.90
1994;DHT22;998;49.906;10.908;2023-02-26T08:31:38;1.10;99.90
1994;DHT22;998;49.906;10.908;2023-02-26T08:34:05;1.10;99.90
1994;DHT22;998;49.906;10.908;2023-02-26T08:36:33;1.10;99.90
1994;DHT22;998;49.906;10.908;2023-02-26T08:39:02;1.20;99.90
1994;DHT22;998;49.906;10.908;2023-02-26T08:41:29;1.00;99.90
1994;DHT22;998;49.906;10.908;2023-02-26T08:43:58;1.10;99.90
1994;DHT22;998;49.906;10.908;2023-02-26T08:46:26;1.10;99.90
1994;DHT22;998;49.906;10.908;2023-02-26T08:48:53;1.20;99.90
1994;DHT22;998;49.906;10.908;2023-02-26T08:51:21;1.20;99.90
1994;DHT22;998;49.906;10.908;2023-02-26T08:53:48;1.40;99.90
1994;DHT22;998;49.906;10.908;2023-02-26T08:56:17;1.40;99.90
1994;DHT22;998;49.906;10.908;2023-02-26T08:58:45;1.50;99.90
1994;DHT22;998;49.906;10.908;2023-02-26T09:01:12;1.50;99.90
1994;DHT22;998;49.906;10.908;2023-02-26T09:03:39;1.50;99.90
1994;DHT22;998;49.906;10.908;2023-02-26T09:06:07;1.60;99.90
1994;DHT22;998;49.906;10.908;2023-02-26T09:08:34;1.70;99.90
1994;DHT22;998;49.906;10.908;2023-02-26T09:11:02;1.70;99.90
1994;DHT22;998;49.906;10.908;2023-02-26T09:13:31;1.80;99.90
1994;DHT22;998;49.906;10.908;2023-02-26T09:15:58;1.90;99.90
1994;DHT22;998;49.906;10.908;2023-02-26T09:18:26;2.00;99.90
1994;DHT22;998;49.906;10.908;2023-02-26T09:20:53;2.00;99.90
1994;DHT22;998;49.906;10.908;2023-02-26T09:23:21;1.80;99.90
1994;DHT22;998;49.906;10.908;2023-02-26T09:25:51;1.70;99.90
1994;DHT22;998;49.906;10.908;2023-02-26T09:28:20;1.80;99.90
1994;DHT22;998;49.906;10.908;2023-02-26T09:30:52;1.70;99.90
1994;DHT22;998;49.906;10.908;2023-02-26T09:33:20;1.80;99.90
1994;DHT22;998;49.906;10.908;2023-02-26T09:35:47;1.80;99.90
1994;DHT22;998;49.906;10.908;2023-02-26T09:38:15;1.80;99.90
1994;DHT22;998;49.906;10.908;2023-02-26T09:40:47;1.90;99.90
1994;DHT22;998;49.906;10.908;2023-02-26T09:43:31;1.80;99.90
1994;DHT22;998;49.906;10.908;2023-02-26T09:46:05;1.80;99.90
1994;DHT22;998;49.906;10.908;2023-02-26T09:48:38;1.80;99.90
1994;DHT22;998;49.906;10.908;2023-02-26T09:51:08;1.80;99.90
1994;DHT22;998;49.906;10.908;2023-02-26T09:53:38;1.80;99.90
1994;DHT22;998;49.906;10.908;2023-02-26T09:56:11;1.80;99.90
1994;DHT22;998;49.906;10.908;2023-02-26T09:58:40;1.90;99.90
1994;DHT22;998;49.906;10.908;2023-02-26T10:01:12;2.00;99.90
1994;DHT22;998;49.906;10.908;2023-02-26T10:03:53;1.90;99.90
1994;DHT22;998;49.906;10.908;2023-02-26T10:06:25;2.00;99.90
1994;DHT22;998;49.906;10.908;2023-02-26T10:09:09;2.10;99.90
1994;DHT22;998;49.906;10.908;2023-02-26T10:11:45;2.20;99.90
1994;DHT22;998;49.906;10.908;2023-02-26T10:14:17;2.30;99.90
1994;DHT22;998;49.906;10.908;2023-02-26T10:16:50;2.50;99.90
1994;DHT22;998;49.906;10.908;2023-02-26T10:19:24;2.70;99.90
1994;DHT22;998;49.906;10.908;2023-02-26T10:21:55;2.80;99.90
1994;DHT22;998;49.906;10.908;2023-02-26T10:24:27;2.90;99.90
1994;DHT22;998;49.906;10.908;2023-02-26T10:27:01;2.80;99.90
1994;DHT22;998;49.906;10.908;2023-02-26T10:29:33;2.90;99.90
1994;DHT22;998;49.906;10.908;2023-02-26T10:32:14;2.90;99.90
1994;DHT22;998;49.906;10.908;2023-02-26T10:34:46;3.00;99.90
1994;DHT22;998;49.906;10.908;2023-02-26T10:37:19;3.10;99.90
1994;DHT22;998;49.906;10.908;2023-02-26T10:39:50;3.20;99.90
1994;DHT22;998;49.906;10.908;2023-02-26T10:42:25;3.10;99.90
1994;DHT22;998;49.906;10.908;2023-02-26T10:45:06;2.90;99.90
1994;DHT22;998;49.906;10.908;2023-02-26T10:47:42;2.90;99.90
1994;DHT22;998;49.906;10.908;2023-02-26T10:50:14;3.10;99.90
1994;DHT22;998;49.906;10.908;2023-02-26T10:52:43;3.20;99.90
1994;DHT22;998;49.906;10.908;2023-02-26T10:55:29;3.30;99.90
1994;DHT22;998;49.906;10.908;2023-02-26T10:58:03;3.20;99.90
1994;DHT22;998;49.906;10.908;2023-02-26T11:00:32;3.60;99.90
1994;DHT22;998;49.906;10.908;2023-02-26T11:03:04;3.80;99.90
1994;DHT22;998;49.906;10.908;2023-02-26T11:05:33;3.80;99.90
1994;DHT22;998;49.906;10.908;2023-02-26T11:08:03;3.50;99.90
1994;DHT22;998;49.906;10.908;2023-02-26T11:10:40;3.30;99.90
1994;DHT22;998;49.906;10.908;2023-02-26T11:13:08;3.10;99.90
1994;DHT22;998;49.906;10.908;2023-02-26T11:15:38;3.00;99.90
1994;DHT22;998;49.906;10.908;2023-02-26T11:18:12;2.90;99.90
1994;DHT22;998;49.906;10.908;2023-02-26T11:20:44;2.90;99.90
1994;DHT22;998;49.906;10.908;2023-02-26T11:23:13;2.90;99.90
1994;DHT22;998;49.906;10.908;2023-02-26T11:25:42;2.90;99.90
1994;DHT22;998;49.906;10.908;2023-02-26T11:28:20;2.90;99.90
1994;DHT22;998;49.906;10.908;2023-02-26T11:30:48;2.90;99.90
1994;DHT22;998;49.906;10.908;2023-02-26T11:33:23;3.00;99.90
1994;DHT22;998;49.906;10.908;2023-02-26T11:35:58;3.00;99.90
1994;DHT22;998;49.906;10.908;2023-02-26T11:38:26;3.00;99.90
1994;DHT22;998;49.906;10.908;2023-02-26T11:40:56;3.00;99.90
1994;DHT22;998;49.906;10.908;2023-02-26T11:43:26;2.80;99.90
1994;DHT22;998;49.906;10.908;2023-02-26T11:46:00;2.80;99.90
1994;DHT22;998;49.906;10.908;2023-02-26T11:48:39;3.00;99.90
1994;DHT22;998;49.906;10.908;2023-02-26T11:51:09;3.60;99.90
1994;DHT22;998;49.906;10.908;2023-02-26T11:53:43;3.90;99.90
1994;DHT22;998;49.906;10.908;2023-02-26T11:56:18;4.10;99.90
1994;DHT22;998;49.906;10.908;2023-02-26T11:58:46;3.80;99.90
1994;DHT22;998;49.906;10.908;2023-02-26T12:01:17;3.70;99.90
1994;DHT22;998;49.906;10.908;2023-02-26T12:03:49;3.60;99.90
1994;DHT22;998;49.906;10.908;2023-02-26T12:06:20;3.60;99.90
1994;DHT22;998;49.906;10.908;2023-02-26T12:08:49;3.50;99.90
1994;DHT22;998;49.906;10.908;2023-02-26T12:11:42;3.60;99.90
1994;DHT22;998;49.906;10.908;2023-02-26T12:14:31;3.50;99.90
1994;DHT22;998;49.906;10.908;2023-02-26T12:17:12;3.30;99.90
1994;DHT22;998;49.906;10.908;2023-02-26T12:19:47;3.30;99.90
1994;DHT22;998;49.906;10.908;2023-02-26T12:22:40;3.40;99.90
1994;DHT22;998;49.906;10.908;2023-02-26T12:25:21;3.20;99.90
1994;DHT22;998;49.906;10.908;2023-02-26T12:28:15;3.20;99.90
1994;DHT22;998;49.906;10.908;2023-02-26T12:33:57;3.50;99.90
1994;DHT22;998;49.906;10.908;2023-02-26T12:36:43;4.30;99.90
1994;DHT22;998;49.906;10.908;2023-02-26T12:39:22;5.40;99.90
1994;DHT22;998;49.906;10.908;2023-02-26T12:42:04;5.80;99.90
1994;DHT22;998;49.906;10.908;2023-02-26T12:44:54;5.90;99.90
1994;DHT22;998;49.906;10.908;2023-02-26T12:50:33;5.80;96.40
1994;DHT22;998;49.906;10.908;2023-02-26T12:53:27;6.60;95.30
1994;DHT22;998;49.906;10.908;2023-02-26T12:56:09;7.70;91.20
1994;DHT22;998;49.906;10.908;2023-02-26T12:58:50;7.50;88.70
1994;DHT22;998;49.906;10.908;2023-02-26T13:01:36;7.00;89.00
1994;DHT22;998;49.906;10.908;2023-02-26T13:04:47;5.90;91.50
1994;DHT22;998;49.906;10.908;2023-02-26T13:07:42;5.10;93.50
1994;DHT22;998;49.906;10.908;2023-02-26T13:10:21;4.70;94.30
1994;DHT22;998;49.906;10.908;2023-02-26T13:13:01;4.50;96.40
1994;DHT22;998;49.906;10.908;2023-02-26T13:15:59;4.30;93.90
1994;DHT22;998;49.906;10.908;2023-02-26T13:18:36;4.10;94.30
1994;DHT22;998;49.906;10.908;2023-02-26T13:21:10;4.10;94.80
1994;DHT22;998;49.906;10.908;2023-02-26T13:23:44;4.10;94.40
1994;DHT22;998;49.906;10.908;2023-02-26T13:26:17;3.90;94.80
1994;DHT22;998;49.906;10.908;2023-02-26T13:28:49;3.90;95.80
1994;DHT22;998;49.906;10.908;2023-02-26T13:31:22;4.40;96.60
1994;DHT22;998;49.906;10.908;2023-02-26T13:33:54;4.70;94.90
1994;DHT22;998;49.906;10.908;2023-02-26T13:36:24;4.70;95.20
1994;DHT22;998;49.906;10.908;2023-02-26T13:39:01;4.60;93.70
1994;DHT22;998;49.906;10.908;2023-02-26T13:41:36;5.10;93.70
1994;DHT22;998;49.906;10.908;2023-02-26T13:44:25;5.00;92.10
1994;DHT22;998;49.906;10.908;2023-02-26T13:47:10;5.30;92.60
1994;DHT22;998;49.906;10.908;2023-02-26T13:49:52;6.10;92.20
1994;DHT22;998;49.906;10.908;2023-02-26T13:52:23;6.30;90.10
1994;DHT22;998;49.906;10.908;2023-02-26T13:54:51;6.20;90.50
1994;DHT22;998;49.906;10.908;2023-02-26T13:57:36;5.80;91.60
1994;DHT22;998;49.906;10.908;2023-02-26T14:00:21;5.30;91.00
1994;DHT22;998;49.906;10.908;2023-02-26T14:02:51;4.80;92.80
1994;DHT22;998;49.906;10.908;2023-02-26T14:08:44;4.50;91.30
1994;DHT22;998;49.906;10.908;2023-02-26T14:11:32;4.30;92.60
1994;DHT22;998;49.906;10.908;2023-02-26T14:14:17;4.30;92.60
1994;DHT22;998;49.906;10.908;2023-02-26T14:16:50;4.30;92.80
1994;DHT22;998;49.906;10.908;2023-02-26T14:19:27;4.40;94.00
1994;DHT22;998;49.906;10.908;2023-02-26T14:21:56;4.40;94.30
1994;DHT22;998;49.906;10.908;2023-02-26T14:24:30;4.20;93.20
1994;DHT22;998;49.906;10.908;2023-02-26T14:27:30;4.10;93.00
1994;DHT22;998;49.906;10.908;2023-02-26T14:30:04;4.10;93.60
1994;DHT22;998;49.906;10.908;2023-02-26T14:32:37;4.20;92.60
1994;DHT22;998;49.906;10.908;2023-02-26T14:35:12;4.40;92.40
1994;DHT22;998;49.906;10.908;2023-02-26T14:37:42;4.70;91.40
1994;DHT22;998;49.906;10.908;2023-02-26T14:40:15;4.50;90.20
1994;DHT22;998;49.906;10.908;2023-02-26T14:42:47;4.20;91.50
1994;DHT22;998;49.906;10.908;2023-02-26T14:45:27;4.10;91.70
1994;DHT22;998;49.906;10.908;2023-02-26T14:47:56;3.90;91.50
1994;DHT22;998;49.906;10.908;2023-02-26T14:50:25;3.90;93.10
1994;DHT22;998;49.906;10.908;2023-02-26T14:56:07;3.70;93.80
1994;DHT22;998;49.906;10.908;2023-02-26T14:58:50;3.50;94.70
1994;DHT22;998;49.906;10.908;2023-02-26T15:01:33;3.50;94.90
1994;DHT22;998;49.906;10.908;2023-02-26T15:04:14;3.40;96.00
1994;DHT22;998;49.906;10.908;2023-02-26T15:07:00;3.40;96.60
1994;DHT22;998;49.906;10.908;2023-02-26T15:09:39;3.30;97.00
1994;DHT22;998;49.906;10.908;2023-02-26T15:12:23;3.30;97.90
1994;DHT22;998;49.906;10.908;2023-02-26T15:15:21;3.40;98.20
1994;DHT22;998;49.906;10.908;2023-02-26T15:20:50;3.50;98.20
1994;DHT22;998;49.906;10.908;2023-02-26T15:23:38;3.50;97.20
1994;DHT22;998;49.906;10.908;2023-02-26T15:26:21;3.50;96.80
1994;DHT22;998;49.906;10.908;2023-02-26T15:28:50;3.50;97.10
1994;DHT22;998;49.906;10.908;2023-02-26T15:31:19;3.70;97.40
1994;DHT22;998;49.906;10.908;2023-02-26T15:33:49;4.00;97.80
1994;DHT22;998;49.906;10.908;2023-02-26T15:36:18;4.20;96.20
1994;DHT22;998;49.906;10.908;2023-02-26T15:38:52;4.00;96.90
1994;DHT22;998;49.906;10.908;2023-02-26T15:41:21;3.90;96.60
1994;DHT22;998;49.906;10.908;2023-02-26T15:43:51;3.90;96.80
1994;DHT22;998;49.906;10.908;2023-02-26T15:46:22;3.80;97.80
1994;DHT22;998;49.906;10.908;2023-02-26T15:48:57;3.70;97.30
1994;DHT22;998;49.906;10.908;2023-02-26T15:51:26;3.70;96.30
1994;DHT22;998;49.906;10.908;2023-02-26T15:53:54;3.60;96.90
1994;DHT22;998;49.906;10.908;2023-02-26T15:56:29;3.60;97.70
1994;DHT22;998;49.906;10.908;2023-02-26T15:58:59;3.60;96.60
1994;DHT22;998;49.906;10.908;2023-02-26T16:01:28;3.50;95.90
1994;DHT22;998;49.906;10.908;2023-02-26T16:04:00;3.50;96.60
1994;DHT22;998;49.906;10.908;2023-02-26T16:06:30;3.40;96.10
1994;DHT22;998;49.906;10.908;2023-02-26T16:08:58;3.30;96.00
1994;DHT22;998;49.906;10.908;2023-02-26T16:11:30;3.20;96.70
1994;DHT22;998;49.906;10.908;2023-02-26T16:13:59;3.20;96.70
1994;DHT22;998;49.906;10.908;2023-02-26T16:16:31;3.10;97.90
1994;DHT22;998;49.906;10.908;2023-02-26T16:19:02;3.00;98.60
1994;DHT22;998;49.906;10.908;2023-02-26T16:21:31;3.00;99.20
1994;DHT22;998;49.906;10.908;2023-02-26T16:24:00;2.70;99.30
1994;DHT22;998;49.906;10.908;2023-02-26T16:26:31;2.60;99.70
1994;DHT22;998;49.906;10.908;2023-02-26T16:29:03;2.60;99.90
1994;DHT22;998;49.906;10.908;2023-02-26T16:31:31;2.70;99.90
1994;DHT22;998;49.906;10.908;2023-02-26T16:34:06;2.80;99.90
1994;DHT22;998;49.906;10.908;2023-02-26T16:36:39;2.90;99.90
1994;DHT22;998;49.906;10.908;2023-02-26T16:39:16;2.90;99.90
1994;DHT22;998;49.906;10.908;2023-02-26T16:41:47;2.70;99.90
1994;DHT22;998;49.906;10.908;2023-02-26T16:44:43;2.70;99.90
1994;DHT22;998;49.906;10.908;2023-02-26T16:47:11;2.70;99.90
1994;DHT22;998;49.906;10.908;2023-02-26T16:49:41;2.70;99.90
1994;DHT22;998;49.906;10.908;2023-02-26T16:52:14;2.60;99.90
1994;DHT22;998;49.906;10.908;2023-02-26T16:54:45;2.60;99.90
1994;DHT22;998;49.906;10.908;2023-02-26T16:57:18;2.60;99.90
1994;DHT22;998;49.906;10.908;2023-02-26T16:59:50;2.50;99.90
1994;DHT22;998;49.906;10.908;2023-02-26T17:02:20;2.50;99.90
1994;DHT22;998;49.906;10.908;2023-02-26T17:04:52;2.50;99.90
1994;DHT22;998;49.906;10.908;2023-02-26T17:07:25;2.40;99.90
1994;DHT22;998;49.906;10.908;2023-02-26T17:09:57;2.30;99.90
1994;DHT22;998;49.906;10.908;2023-02-26T17:12:29;2.30;99.90